Capitol Logistics 762




SPJC
Jorge Chávez International Airport
Lima, PE
KMIA
Miami International Airport
Miami, US

Route Details

Aircraft Information
Group: Boeing Long Haul
Types: B744,B763
Route Data
Demand: H
Distance: 2281nm
Duration: 6h 00m
Recm'd Route: XOPLI UG448 IKBIX Y183 PEAKY DVALL CURSO5
Origin Wx: SPJC 242200Z 18006KT 6000 OVC011 17/13 Q1012 NOSIG RMK TX17.6 PP000
Dest. Wx: KMIA 242153Z 11013KT 10SM SCT035 SCT250 29/20 A3001 RMK AO2 SLP162 T02940200 $
Notes:

Financial History
Total Freight: 1,090,610lbs
Average Load: 109,061lbs/flt
Fuel Used: 687,256lbs
Avg. Fuel Used: 68,726lbs/flt
Fuel Expense: $491,798
Avg. Fuel Expense: $49,180
Avg. Fuel Cost: $0.75/lbs
Total Gross Income: $3,228,513
Pilot Pay: $2,110
Total Expenses: $360,346
Total Revenue: $2,365,909
Average Revenue: $322,851.33